Time;durP1;ratioP1;P1;durP2;ratioP2;P2;SDS_P1;SDS_P2;PMS_P1;PMS_P2;Temp;Humidity;BMP_temperature;BMP_pressure;BME280_temperature;BME280_humidity;BME280_pressure;Samples;Min_cycle;Max_cycle;Signal;HPM_P1;HPM_P2
2021/04/24 00:00:10;;;;;;;14.88;6.72;;;6.90;99.90;;;;;;4947965;28;20107;-77
2021/04/24 00:02:40;;;;;;;18.85;6.32;;;6.90;99.90;;;;;;4946638;28;20169;-77
2021/04/24 00:05:09;;;;;;;17.83;7.18;;;6.80;99.90;;;;;;4944003;28;20036;-76
2021/04/24 00:07:35;;;;;;;13.38;6.07;;;6.80;99.90;;;;;;4945322;28;20126;-77
2021/04/24 00:10:00;;;;;;;13.93;5.90;;;6.80;99.90;;;;;;4951514;28;20063;-78
2021/04/24 00:12:26;;;;;;;13.55;6.32;;;6.80;99.90;;;;;;4950452;28;20031;-78
2021/04/24 00:14:53;;;;;;;14.43;5.68;;;6.90;99.90;;;;;;4979811;28;20023;-77
2021/04/24 00:17:18;;;;;;;11.07;5.25;;;6.90;99.90;;;;;;4964093;28;20031;-76
2021/04/24 00:19:44;;;;;;;18.65;6.72;;;6.90;99.90;;;;;;4947628;28;20058;-77
2021/04/24 00:22:11;;;;;;;14.65;6.10;;;6.80;99.90;;;;;;4953629;28;20031;-77
2021/04/24 00:24:37;;;;;;;15.30;5.93;;;6.80;99.90;;;;;;4977222;28;20027;-77
2021/04/24 00:27:03;;;;;;;17.60;6.70;;;6.80;99.90;;;;;;4961565;28;20023;-76
2021/04/24 00:29:28;;;;;;;15.20;6.78;;;6.80;99.90;;;;;;4961287;28;20058;-76
2021/04/24 00:31:54;;;;;;;17.30;6.60;;;6.70;99.90;;;;;;4959764;28;20050;-77
2021/04/24 00:34:20;;;;;;;16.63;6.93;;;6.60;99.90;;;;;;4955656;28;20523;-75
2021/04/24 00:36:45;;;;;;;17.75;7.28;;;6.50;99.90;;;;;;4970986;28;20035;-78
2021/04/24 00:39:11;;;;;;;13.98;6.82;;;6.50;99.90;;;;;;4948140;28;20035;-78
2021/04/24 00:41:36;;;;;;;17.05;7.35;;;6.40;99.90;;;;;;4956901;28;20035;-78
2021/04/24 00:44:03;;;;;;;19.33;7.72;;;6.40;99.90;;;;;;4957548;28;20439;-76
2021/04/24 00:46:28;;;;;;;13.88;6.90;;;6.40;99.90;;;;;;4945676;28;20062;-77
2021/04/24 00:48:54;;;;;;;13.85;7.15;;;6.40;99.90;;;;;;4970186;28;20031;-77
2021/04/24 00:51:21;;;;;;;16.83;6.70;;;6.50;99.90;;;;;;4973183;28;20088;-77
2021/04/24 00:53:46;;;;;;;18.10;7.45;;;6.40;99.90;;;;;;4976699;28;20082;-78
2021/04/24 00:56:12;;;;;;;18.25;7.10;;;6.40;99.90;;;;;;5021834;28;20553;-77
2021/04/24 00:58:38;;;;;;;16.77;7.10;;;6.40;99.90;;;;;;4951705;29;20063;-78
2021/04/24 01:01:04;;;;;;;16.45;7.40;;;6.50;99.90;;;;;;4964543;28;20078;-79
2021/04/24 01:03:31;;;;;;;18.65;7.13;;;6.40;99.90;;;;;;4965095;28;20085;-75
2021/04/24 01:05:57;;;;;;;17.23;7.40;;;6.40;99.90;;;;;;4965839;28;20038;-76
2021/04/24 01:08:23;;;;;;;16.70;7.35;;;6.50;99.90;;;;;;4968297;28;20034;-77
2021/04/24 01:10:49;;;;;;;17.33;7.53;;;6.40;99.90;;;;;;4964352;28;20099;-76
2021/04/24 01:13:16;;;;;;;17.42;8.27;;;6.40;99.90;;;;;;4974794;28;20038;-76
2021/04/24 01:15:43;;;;;;;23.05;8.30;;;6.40;99.90;;;;;;4959916;28;20034;-77
2021/04/24 01:18:09;;;;;;;20.58;8.43;;;6.50;99.90;;;;;;4980138;28;20042;-74
2021/04/24 01:20:35;;;;;;;23.60;8.35;;;6.40;99.90;;;;;;4978795;28;20049;-75
2021/04/24 01:23:02;;;;;;;18.25;8.52;;;6.40;99.90;;;;;;4969496;28;20678;-78
2021/04/24 01:25:28;;;;;;;19.98;8.20;;;6.50;99.90;;;;;;4963534;28;20035;-77
2021/04/24 01:27:56;;;;;;;19.70;8.43;;;6.40;99.90;;;;;;4954168;28;20031;-76
2021/04/24 01:30:27;;;;;;;19.40;8.68;;;6.30;99.90;;;;;;4959930;28;20375;-78
2021/04/24 01:32:55;;;;;;;20.98;9.18;;;6.30;99.90;;;;;;4975102;28;20045;-74
2021/04/24 01:35:23;;;;;;;20.90;8.98;;;6.30;99.90;;;;;;4996858;28;20035;-76
2021/04/24 01:37:50;;;;;;;22.35;9.20;;;6.20;99.90;;;;;;4960162;28;20298;-74
2021/04/24 01:40:18;;;;;;;21.30;8.93;;;6.20;99.90;;;;;;4977190;28;20094;-76
2021/04/24 01:42:45;;;;;;;23.80;8.82;;;6.20;99.90;;;;;;4983838;28;20023;-75
2021/04/24 01:45:15;;;;;;;24.52;9.60;;;6.20;99.90;;;;;;4976830;28;20027;-74
2021/04/24 01:47:43;;;;;;;20.75;9.25;;;6.20;99.90;;;;;;4973313;28;20081;-75
2021/04/24 01:50:11;;;;;;;18.70;9.10;;;6.20;99.90;;;;;;4976533;28;20023;-75
2021/04/24 01:52:38;;;;;;;20.38;8.75;;;6.20;99.90;;;;;;4971844;28;20035;-78
2021/04/24 01:55:07;;;;;;;24.05;9.10;;;6.10;99.90;;;;;;4944992;28;20023;-77
2021/04/24 01:57:33;;;;;;;18.42;8.57;;;6.20;99.90;;;;;;4948444;28;20031;-76
2021/04/24 01:59:59;;;;;;;19.20;9.18;;;6.20;99.90;;;;;;4954600;29;20028;-77
2021/04/24 02:02:24;;;;;;;21.02;9.25;;;6.20;99.90;;;;;;4963671;28;20442;-78
2021/04/24 02:04:50;;;;;;;19.27;9.13;;;6.20;99.90;;;;;;4968052;28;20085;-78
2021/04/24 02:07:17;;;;;;;26.00;9.85;;;6.20;99.90;;;;;;4965151;28;20347;-75
2021/04/24 02:09:43;;;;;;;24.42;8.93;;;6.10;99.90;;;;;;4964534;28;20038;-77
2021/04/24 02:12:13;;;;;;;21.65;9.07;;;6.00;99.90;;;;;;4963883;28;20023;-78
2021/04/24 02:14:43;;;;;;;19.33;9.50;;;6.00;99.90;;;;;;4963984;28;20035;-76
2021/04/24 02:17:11;;;;;;;23.05;9.85;;;6.00;99.90;;;;;;4965760;28;20611;-78
2021/04/24 02:19:42;;;;;;;23.65;9.82;;;5.90;99.90;;;;;;4966234;28;20221;-78
2021/04/24 02:22:10;;;;;;;22.42;9.13;;;5.90;99.90;;;;;;4960189;28;20034;-75
2021/04/24 02:24:52;;;;;;;21.50;8.88;;;5.90;99.90;;;;;;4954373;28;20039;-79
2021/04/24 02:27:18;;;;;;;18.92;9.02;;;6.00;99.90;;;;;;4952505;28;20023;-78
2021/04/24 02:29:44;;;;;;;22.13;9.00;;;5.90;99.90;;;;;;4952299;28;20120;-78
2021/04/24 02:32:12;;;;;;;21.33;9.13;;;5.80;99.90;;;;;;4972993;28;20027;-78
2021/04/24 02:34:42;;;;;;;17.45;8.73;;;5.80;99.90;;;;;;4963912;28;20399;-77
2021/04/24 02:37:09;;;;;;;20.58;9.50;;;5.80;99.90;;;;;;4959974;29;20014;-76
2021/04/24 02:39:46;;;;;;;22.67;8.93;;;5.80;99.90;;;;;;4963499;28;20039;-77
2021/04/24 02:42:16;;;;;;;25.65;9.88;;;5.80;99.90;;;;;;4961437;28;20440;-77
2021/04/24 02:44:42;;;;;;;20.23;9.13;;;5.80;99.90;;;;;;4958618;28;20038;-79
2021/04/24 02:47:08;;;;;;;24.08;9.88;;;5.80;99.90;;;;;;4971292;28;20031;-79
2021/04/24 02:49:36;;;;;;;23.23;8.73;;;5.80;99.90;;;;;;4945960;28;20123;-77
2021/04/24 02:52:04;;;;;;;21.40;10.10;;;5.80;99.90;;;;;;4946135;29;20042;-77
2021/04/24 02:54:30;;;;;;;25.00;10.10;;;5.80;99.90;;;;;;4999489;28;20018;-77
2021/04/24 02:56:56;;;;;;;21.45;9.95;;;5.80;99.90;;;;;;4966677;28;20054;-77
2021/04/24 02:59:22;;;;;;;21.48;9.65;;;5.70;99.90;;;;;;5038943;28;20045;-77
2021/04/24 03:01:49;;;;;;;19.30;9.30;;;5.70;99.90;;;;;;5030009;28;20074;-75
2021/04/24 03:04:15;;;;;;;21.40;10.65;;;5.70;99.90;;;;;;4967488;28;20023;-77
2021/04/24 03:06:45;;;;;;;19.40;10.23;;;5.70;99.90;;;;;;4965904;28;20522;-78
2021/04/24 03:09:11;;;;;;;25.13;10.75;;;5.70;99.90;;;;;;4965448;28;20016;-77
2021/04/24 03:11:38;;;;;;;26.45;10.55;;;5.60;99.90;;;;;;4966918;28;20038;-78
2021/04/24 03:14:04;;;;;;;25.77;10.75;;;5.60;99.90;;;;;;4956363;28;20047;-76
2021/04/24 03:16:32;;;;;;;20.67;9.27;;;5.70;99.90;;;;;;4962973;28;20049;-78
2021/04/24 03:18:57;;;;;;;22.90;10.40;;;5.60;99.90;;;;;;4965310;28;20031;-76
2021/04/24 03:21:24;;;;;;;23.48;10.18;;;5.60;99.90;;;;;;4946926;29;20031;-77
2021/04/24 03:23:51;;;;;;;24.20;11.23;;;5.60;99.90;;;;;;4951631;28;20015;-77
2021/04/24 03:26:17;;;;;;;30.70;10.98;;;5.60;99.90;;;;;;4964238;28;20034;-77
2021/04/24 03:28:44;;;;;;;20.58;10.18;;;5.60;99.90;;;;;;4965043;28;20023;-77
2021/04/24 03:31:10;;;;;;;27.23;10.27;;;5.70;99.90;;;;;;4960995;28;20126;-78
2021/04/24 03:33:37;;;;;;;24.17;10.02;;;5.60;99.90;;;;;;4943546;28;20065;-78
2021/04/24 03:36:02;;;;;;;21.38;9.05;;;5.40;99.90;;;;;;4962360;28;20360;-79
2021/04/24 03:38:28;;;;;;;26.55;10.57;;;5.30;99.90;;;;;;4958430;28;20031;-76
2021/04/24 03:40:54;;;;;;;22.15;10.68;;;5.40;99.90;;;;;;4952731;28;20024;-81
2021/04/24 03:43:20;;;;;;;22.08;9.88;;;5.40;99.90;;;;;;4952193;28;20023;-80
2021/04/24 03:45:45;;;;;;;31.33;11.18;;;5.40;99.90;;;;;;4967505;28;20027;-77
2021/04/24 03:48:11;;;;;;;26.20;11.18;;;5.40;99.90;;;;;;4950109;28;20043;-77
2021/04/24 03:50:36;;;;;;;20.35;9.02;;;5.40;99.90;;;;;;4964711;28;20028;-77
2021/04/24 03:53:03;;;;;;;24.60;10.13;;;5.30;99.90;;;;;;4959970;28;20024;-77
2021/04/24 03:55:28;;;;;;;29.00;11.30;;;5.40;99.90;;;;;;4956477;28;20094;-77
2021/04/24 03:57:55;;;;;;;27.15;10.52;;;5.40;99.90;;;;;;4940282;29;20036;-77
2021/04/24 04:00:23;;;;;;;24.33;10.55;;;5.40;99.90;;;;;;4938612;28;20485;-76
2021/04/24 04:02:56;;;;;;;29.90;11.32;;;5.40;99.90;;;;;;4952307;28;20023;-77
2021/04/24 04:05:23;;;;;;;23.40;9.45;;;5.30;99.90;;;;;;4957721;28;20019;-77
2021/04/24 04:07:49;;;;;;;30.98;11.68;;;5.40;99.90;;;;;;4953151;28;20083;-76
2021/04/24 04:10:19;;;;;;;23.88;10.35;;;5.40;99.90;;;;;;4966166;28;20027;-76
2021/04/24 04:12:47;;;;;;;18.48;10.02;;;5.40;99.90;;;;;;4947688;28;20219;-76
2021/04/24 04:15:14;;;;;;;23.35;9.75;;;5.30;99.90;;;;;;4956786;28;20016;-77
2021/04/24 04:17:41;;;;;;;27.13;10.35;;;5.30;99.90;;;;;;4946017;28;20030;-76
2021/04/24 04:20:09;;;;;;;27.77;11.43;;;5.30;99.90;;;;;;4962746;28;20031;-78
2021/04/24 04:22:36;;;;;;;23.52;11.05;;;5.30;99.90;;;;;;4982874;28;20042;-74
2021/04/24 04:25:03;;;;;;;31.60;11.85;;;5.30;99.90;;;;;;4959932;28;20023;-77
2021/04/24 04:27:29;;;;;;;24.23;9.95;;;5.20;99.90;;;;;;4967888;28;20155;-75
2021/04/24 04:29:54;;;;;;;26.05;10.65;;;5.20;99.90;;;;;;4962828;28;20035;-78
2021/04/24 04:32:20;;;;;;;25.52;10.82;;;5.30;99.90;;;;;;4957481;28;20028;-76
2021/04/24 04:34:46;;;;;;;28.33;11.35;;;5.20;99.90;;;;;;4945591;28;20092;-77
2021/04/24 04:37:12;;;;;;;22.40;10.48;;;5.10;99.90;;;;;;4963028;28;20027;-77
2021/04/24 04:39:37;;;;;;;21.60;10.25;;;5.00;99.90;;;;;;4965418;28;20267;-78
2021/04/24 04:42:03;;;;;;;25.77;10.27;;;5.00;99.90;;;;;;4946276;28;20035;-77
2021/04/24 04:44:29;;;;;;;26.80;11.00;;;4.90;99.90;;;;;;4957992;29;20042;-77
2021/04/24 04:46:55;;;;;;;20.83;9.63;;;4.90;99.90;;;;;;4938555;28;20046;-79
2021/04/24 04:49:20;;;;;;;26.38;10.85;;;4.90;99.90;;;;;;4953988;28;20019;-79
2021/04/24 04:51:46;;;;;;;24.92;10.10;;;4.90;99.90;;;;;;4956464;28;20071;-77
2021/04/24 04:54:12;;;;;;;26.60;11.30;;;4.90;99.90;;;;;;4953680;28;20059;-76
2021/04/24 04:56:38;;;;;;;28.17;11.40;;;4.90;99.90;;;;;;4975433;28;20023;-77
2021/04/24 04:59:04;;;;;;;29.23;11.15;;;5.00;99.90;;;;;;4966611;28;20057;-76
2021/04/24 05:01:29;;;;;;;22.52;10.43;;;4.90;99.90;;;;;;4941410;28;20047;-76
2021/04/24 05:03:55;;;;;;;26.13;10.82;;;4.80;99.90;;;;;;4966312;28;20019;-76
2021/04/24 05:06:21;;;;;;;26.80;12.15;;;4.90;99.90;;;;;;4954849;28;20104;-78
2021/04/24 05:08:47;;;;;;;30.00;11.45;;;4.90;99.90;;;;;;4964906;28;20099;-77
2021/04/24 05:11:12;;;;;;;34.45;11.90;;;4.90;99.90;;;;;;4967882;28;20020;-76
2021/04/24 05:13:38;;;;;;;28.55;10.95;;;4.90;99.90;;;;;;4966263;28;20103;-76
2021/04/24 05:16:04;;;;;;;28.48;10.75;;;4.90;99.90;;;;;;4961416;28;20747;-78
2021/04/24 05:18:30;;;;;;;24.35;10.10;;;5.00;99.90;;;;;;4972475;28;20016;-77
2021/04/24 05:20:55;;;;;;;21.77;9.52;;;5.10;99.90;;;;;;4962613;28;20023;-78
2021/04/24 05:23:21;;;;;;;29.25;10.98;;;5.10;99.90;;;;;;4969200;28;20038;-75
2021/04/24 05:25:48;;;;;;;29.92;11.82;;;5.20;99.90;;;;;;4971998;28;20046;-75
2021/04/24 05:28:14;;;;;;;21.92;10.45;;;5.30;99.90;;;;;;4971626;28;20085;-77
2021/04/24 05:30:40;;;;;;;24.70;11.18;;;5.30;99.90;;;;;;4970260;28;20035;-77
2021/04/24 05:33:06;;;;;;;30.90;11.73;;;5.40;99.90;;;;;;4962148;28;20019;-79
2021/04/24 05:35:31;;;;;;;27.65;11.05;;;5.40;99.90;;;;;;4962248;28;20597;-77
2021/04/24 05:37:57;;;;;;;24.23;10.63;;;5.50;99.90;;;;;;4955170;28;20015;-77
2021/04/24 05:40:23;;;;;;;24.90;10.85;;;5.40;99.90;;;;;;4965317;28;20034;-79
2021/04/24 05:42:49;;;;;;;20.85;10.02;;;5.40;99.90;;;;;;4976656;28;20042;-79
2021/04/24 05:45:16;;;;;;;21.60;10.90;;;5.50;99.90;;;;;;4980278;28;20085;-76
2021/04/24 05:47:47;;;;;;;33.78;11.63;;;5.60;99.90;;;;;;4964467;28;20030;-77
2021/04/24 05:50:14;;;;;;;20.40;9.68;;;5.50;99.90;;;;;;4964035;28;20240;-75
2021/04/24 05:52:39;;;;;;;24.73;9.85;;;5.50;99.90;;;;;;4979900;28;20016;-76
2021/04/24 05:55:07;;;;;;;26.80;10.93;;;5.50;99.90;;;;;;4965623;28;20458;-75
2021/04/24 05:57:34;;;;;;;21.73;10.00;;;5.50;99.90;;;;;;4963924;28;20089;-79
2021/04/24 06:00:04;;;;;;;24.30;10.20;;;5.40;99.90;;;;;;4965219;28;20051;-76
2021/04/24 06:02:33;;;;;;;20.08;9.43;;;5.40;99.90;;;;;;4956566;28;20031;-77
2021/04/24 06:04:59;;;;;;;22.35;10.90;;;5.40;99.90;;;;;;4970095;28;20100;-77
2021/04/24 06:07:24;;;;;;;24.27;10.18;;;5.50;99.90;;;;;;4974188;28;20086;-76
2021/04/24 06:09:50;;;;;;;24.67;10.30;;;5.60;99.90;;;;;;4951037;28;20081;-77
2021/04/24 06:12:16;;;;;;;23.13;10.88;;;5.70;99.90;;;;;;4963444;28;20026;-79
2021/04/24 06:14:41;;;;;;;23.92;10.60;;;5.80;99.90;;;;;;4951505;28;20024;-77
2021/04/24 06:17:07;;;;;;;25.92;10.75;;;5.90;99.90;;;;;;4964392;28;20038;-78
2021/04/24 06:19:32;;;;;;;25.17;9.85;;;5.90;99.90;;;;;;4958212;28;20043;-77
2021/04/24 06:21:58;;;;;;;27.58;10.27;;;6.00;99.90;;;;;;4963810;28;20047;-78
2021/04/24 06:24:24;;;;;;;19.08;9.93;;;6.00;99.90;;;;;;4962659;29;20055;-75
2021/04/24 06:26:49;;;;;;;22.02;8.68;;;6.10;99.90;;;;;;4960494;28;20100;-77
2021/04/24 06:29:15;;;;;;;23.48;10.80;;;6.20;99.90;;;;;;4948049;28;20023;-78
2021/04/24 06:31:41;;;;;;;27.05;9.88;;;6.20;99.90;;;;;;4951850;28;20015;-78
2021/04/24 06:34:06;;;;;;;22.55;10.23;;;6.20;99.90;;;;;;4959964;28;20023;-79
2021/04/24 06:36:32;;;;;;;24.45;11.30;;;6.30;99.90;;;;;;4959135;28;20051;-77
2021/04/24 06:38:58;;;;;;;21.25;9.82;;;6.20;99.90;;;;;;4944334;28;20037;-77
2021/04/24 06:41:25;;;;;;;22.88;8.88;;;6.20;99.90;;;;;;4940674;28;20035;-79
2021/04/24 06:43:51;;;;;;;21.52;9.70;;;6.20;99.90;;;;;;4950890;28;20030;-76
2021/04/24 06:46:17;;;;;;;20.02;10.05;;;6.30;99.90;;;;;;4953186;28;20062;-78
2021/04/24 06:48:44;;;;;;;20.05;9.63;;;6.40;99.90;;;;;;4941245;28;20110;-76
2021/04/24 06:51:10;;;;;;;18.35;9.43;;;6.40;99.90;;;;;;4949453;28;20032;-75
2021/04/24 06:53:36;;;;;;;23.67;10.73;;;6.50;99.90;;;;;;4943717;28;20027;-77
2021/04/24 06:56:03;;;;;;;24.35;10.82;;;6.60;99.90;;;;;;4955794;28;20042;-77
2021/04/24 06:58:29;;;;;;;21.45;9.55;;;6.70;99.90;;;;;;4953688;29;20035;-76
2021/04/24 07:00:55;;;;;;;17.83;8.63;;;6.80;99.90;;;;;;4954751;28;20146;-76
2021/04/24 07:03:23;;;;;;;22.15;9.10;;;6.80;99.90;;;;;;4955364;28;20079;-75
2021/04/24 07:05:49;;;;;;;18.00;8.73;;;6.90;99.90;;;;;;4948418;28;20039;-77
2021/04/24 07:08:17;;;;;;;22.88;9.63;;;6.70;99.90;;;;;;4943738;28;20042;-76
2021/04/24 07:10:44;;;;;;;18.20;8.88;;;6.80;99.90;;;;;;4945375;28;20335;-77
2021/04/24 07:13:09;;;;;;;19.00;8.95;;;6.90;99.90;;;;;;4959505;28;20019;-75
2021/04/24 07:15:35;;;;;;;27.83;9.57;;;7.00;99.90;;;;;;4954761;28;20106;-78
2021/04/24 07:18:01;;;;;;;18.17;8.43;;;7.10;99.90;;;;;;4944822;28;20028;-78
2021/04/24 07:20:26;;;;;;;17.05;7.88;;;7.30;99.90;;;;;;4952998;28;20031;-78
2021/04/24 07:22:52;;;;;;;17.05;8.57;;;7.40;99.90;;;;;;4954090;28;20054;-76
2021/04/24 07:25:19;;;;;;;17.92;8.02;;;7.40;99.90;;;;;;4993296;28;20023;-78
2021/04/24 07:27:45;;;;;;;18.23;8.05;;;7.40;99.90;;;;;;4984014;28;20396;-78
2021/04/24 07:30:11;;;;;;;19.70;7.47;;;7.50;99.90;;;;;;4960774;28;20015;-80
2021/04/24 07:32:37;;;;;;;16.88;7.45;;;7.70;99.90;;;;;;4984139;28;20114;-79
2021/04/24 07:35:05;;;;;;;18.80;7.63;;;7.80;99.90;;;;;;4964404;28;20047;-79
2021/04/24 07:37:31;;;;;;;15.70;7.60;;;8.00;99.90;;;;;;4942441;28;20126;-80
2021/04/24 07:39:57;;;;;;;17.40;7.30;;;8.00;99.90;;;;;;4977673;28;20058;-79
2021/04/24 07:42:24;;;;;;;18.33;7.78;;;8.20;99.90;;;;;;4949084;28;20027;-77
2021/04/24 07:44:52;;;;;;;25.10;8.75;;;8.30;99.90;;;;;;4969815;28;20072;-76
2021/04/24 07:47:18;;;;;;;13.48;7.57;;;8.40;99.90;;;;;;4941727;28;20039;-77
2021/04/24 07:49:43;;;;;;;20.10;7.35;;;8.30;99.90;;;;;;4983004;28;20020;-76
2021/04/24 07:52:11;;;;;;;14.00;7.43;;;8.30;99.90;;;;;;4957223;28;20548;-78
2021/04/24 07:54:42;;;;;;;14.07;6.60;;;8.50;99.90;;;;;;4957625;28;20053;-78
2021/04/24 07:57:12;;;;;;;12.05;5.88;;;8.60;99.90;;;;;;4954596;28;20054;-77
2021/04/24 07:59:38;;;;;;;12.00;6.40;;;8.60;99.90;;;;;;4948149;28;20411;-76
2021/04/24 08:02:04;;;;;;;13.65;6.13;;;8.40;99.90;;;;;;4953845;28;20027;-77
2021/04/24 08:04:30;;;;;;;11.57;5.45;;;8.50;99.90;;;;;;4953358;28;20514;-76
2021/04/24 08:06:58;;;;;;;9.85;4.95;;;8.50;99.90;;;;;;4963238;28;20020;-76
2021/04/24 08:09:25;;;;;;;8.05;4.80;;;8.50;99.90;;;;;;4965345;28;20029;-77
2021/04/24 08:11:51;;;;;;;10.70;5.03;;;8.60;99.90;;;;;;4960396;28;20038;-75
2021/04/24 08:14:17;;;;;;;16.02;5.78;;;8.40;99.90;;;;;;4964161;28;20054;-78
2021/04/24 08:16:43;;;;;;;9.07;5.63;;;8.60;99.90;;;;;;4965594;28;20032;-77
2021/04/24 08:19:10;;;;;;;13.38;6.10;;;8.70;99.90;;;;;;4958046;28;20108;-76
2021/04/24 08:21:35;;;;;;;9.68;5.75;;;8.90;99.90;;;;;;4944076;28;20094;-77
2021/04/24 08:24:01;;;;;;;11.13;6.53;;;9.00;99.90;;;;;;4961199;28;20035;-76
2021/04/24 08:26:30;;;;;;;12.27;6.18;;;9.10;99.90;;;;;;4969544;28;20039;-77
2021/04/24 08:28:56;;;;;;;9.32;4.30;;;9.00;99.90;;;;;;4975844;28;20035;-78
2021/04/24 08:31:23;;;;;;;14.05;5.05;;;9.30;99.90;;;;;;5038456;28;20051;-77
2021/04/24 08:33:49;;;;;;;9.48;3.88;;;9.40;99.90;;;;;;4965129;28;20030;-80
2021/04/24 08:36:15;;;;;;;10.25;5.35;;;9.30;99.90;;;;;;4970914;28;20083;-76
2021/04/24 08:38:42;;;;;;;11.05;4.78;;;9.30;99.90;;;;;;4970968;28;20031;-77
2021/04/24 08:41:11;;;;;;;10.18;4.80;;;9.40;99.90;;;;;;4964934;28;20023;-78
2021/04/24 08:43:38;;;;;;;9.13;4.40;;;9.60;99.90;;;;;;4984593;28;20531;-75
2021/04/24 08:46:05;;;;;;;12.18;4.93;;;9.80;99.90;;;;;;4967126;28;20048;-78
2021/04/24 08:48:34;;;;;;;8.18;4.43;;;10.10;99.90;;;;;;4956073;28;20032;-78
2021/04/24 08:51:00;;;;;;;6.38;3.63;;;10.40;99.90;;;;;;4958133;29;20055;-79
2021/04/24 08:53:26;;;;;;;5.47;3.88;;;10.40;99.90;;;;;;4958666;28;20020;-75
2021/04/24 08:55:52;;;;;;;9.73;4.43;;;10.40;99.90;;;;;;4963003;28;20035;-78
2021/04/24 08:58:18;;;;;;;9.05;4.78;;;10.40;99.90;;;;;;4965741;28;20106;-77
2021/04/24 09:00:47;;;;;;;10.02;4.25;;;10.50;99.90;;;;;;4963099;28;20012;-78
2021/04/24 09:03:20;;;;;;;10.40;4.68;;;10.40;99.90;;;;;;5000229;28;20035;-77
2021/04/24 09:05:53;;;;;;;11.07;4.55;;;10.40;99.90;;;;;;4969044;28;20767;-77
2021/04/24 09:08:25;;;;;;;13.63;4.25;;;10.30;99.90;;;;;;4949483;28;20139;-77
2021/04/24 09:11:04;;;;;;;11.13;4.85;;;10.30;99.90;;;;;;4956478;28;20070;-77
2021/04/24 09:13:30;;;;;;;11.65;4.30;;;10.20;99.90;;;;;;4945326;28;20027;-76
2021/04/24 09:15:57;;;;;;;11.23;4.70;;;10.30;99.90;;;;;;4964110;28;20073;-77
2021/04/24 09:18:27;;;;;;;12.02;4.70;;;10.40;99.90;;;;;;4970378;28;20053;-77
2021/04/24 09:20:55;;;;;;;9.38;4.03;;;10.30;99.90;;;;;;4976541;28;20023;-77
2021/04/24 09:23:23;;;;;;;10.55;4.47;;;10.40;99.90;;;;;;4962482;28;20076;-76
2021/04/24 09:26:09;;;;;;;5.68;3.72;;;10.50;99.90;;;;;;4968024;28;20023;-77
2021/04/24 09:28:41;;;;;;;9.73;4.38;;;10.70;99.90;;;;;;4957482;28;20347;-77
2021/04/24 09:31:16;;;;;;;8.93;4.13;;;10.40;99.90;;;;;;4977609;28;20042;-77
2021/04/24 09:33:44;;;;;;;5.50;3.70;;;10.60;99.90;;;;;;4979819;28;20019;-76
2021/04/24 09:36:11;;;;;;;8.10;3.97;;;10.50;99.90;;;;;;4968762;28;20039;-75
2021/04/24 09:38:40;;;;;;;6.68;3.40;;;10.80;99.90;;;;;;4959272;28;20098;-78
2021/04/24 09:41:09;;;;;;;6.07;3.45;;;11.40;99.90;;;;;;4947710;28;20019;-78
2021/04/24 09:44:05;;;;;;;9.77;4.63;;;11.20;99.20;;;;;;4957168;28;20018;-75
2021/04/24 09:46:58;;;;;;;9.68;4.30;;;11.00;99.60;;;;;;4947860;28;20376;-77
2021/04/24 09:49:27;;;;;;;8.23;3.67;;;11.20;98.70;;;;;;4948879;28;20114;-77
2021/04/24 09:51:59;;;;;;;9.27;4.30;;;10.80;99.40;;;;;;4943227;28;20062;-74
2021/04/24 09:54:47;;;;;;;6.93;3.73;;;11.20;99.00;;;;;;4949640;29;20027;-76
2021/04/24 09:57:21;;;;;;;7.95;3.78;;;11.50;97.60;;;;;;4951955;28;20269;-74
2021/04/24 10:00:03;;;;;;;9.38;5.07;;;11.80;96.80;;;;;;4949054;28;20028;-80
2021/04/24 10:02:32;;;;;;;6.63;4.20;;;11.50;97.70;;;;;;4949257;28;20025;-76
2021/04/24 10:05:09;;;;;;;9.50;4.55;;;11.50;97.70;;;;;;4955041;28;20110;-77
2021/04/24 10:07:40;;;;;;;9.90;4.38;;;11.10;98.60;;;;;;4951905;28;20039;-78
2021/04/24 10:10:11;;;;;;;13.95;4.30;;;10.80;99.00;;;;;;4951921;28;20029;-77
2021/04/24 10:12:38;;;;;;;9.23;4.67;;;11.50;99.20;;;;;;4954167;28;20072;-76
2021/04/24 10:15:05;;;;;;;8.50;4.35;;;11.70;97.20;;;;;;4966004;28;20076;-77
2021/04/24 10:17:31;;;;;;;8.70;5.15;;;11.80;97.70;;;;;;4960014;28;20027;-76
2021/04/24 10:20:00;;;;;;;9.70;4.55;;;11.70;98.60;;;;;;5021780;28;20028;-79
2021/04/24 10:22:28;;;;;;;9.38;5.20;;;11.80;97.10;;;;;;4953466;29;20573;-76
2021/04/24 10:24:54;;;;;;;8.07;4.22;;;11.70;96.70;;;;;;4947402;28;20030;-75
2021/04/24 10:27:22;;;;;;;8.60;4.07;;;11.40;95.80;;;;;;4942710;28;20038;-78
2021/04/24 10:29:50;;;;;;;8.82;3.95;;;11.40;96.00;;;;;;4949574;29;20028;-78
2021/04/24 10:32:17;;;;;;;4.97;3.90;;;11.50;96.00;;;;;;4950387;28;20613;-79
2021/04/24 10:34:43;;;;;;;6.55;3.80;;;11.80;95.30;;;;;;4958095;28;20027;-77
2021/04/24 10:37:10;;;;;;;10.65;3.80;;;12.00;94.60;;;;;;4945001;28;20057;-78
2021/04/24 10:39:40;;;;;;;8.73;4.20;;;11.80;94.40;;;;;;4948164;28;20027;-77
2021/04/24 10:42:24;;;;;;;7.28;3.30;;;11.70;94.50;;;;;;4962353;28;20027;-77
2021/04/24 10:45:06;;;;;;;6.45;3.97;;;12.20;94.60;;;;;;4958835;28;20039;-77
2021/04/24 10:50:15;;;;;;;7.18;3.80;;;12.30;92.00;;;;;;4965696;29;20097;-75
2021/04/24 10:52:43;;;;;;;6.78;3.38;;;12.40;90.70;;;;;;4962336;28;20043;-78
2021/04/24 10:55:27;;;;;;;8.65;3.97;;;12.30;91.80;;;;;;4986230;28;20051;-79
2021/04/24 10:58:03;;;;;;;5.47;3.35;;;12.20;91.50;;;;;;4965025;28;20102;-77
2021/04/24 11:00:30;;;;;;;4.95;3.35;;;12.50;90.80;;;;;;4946962;28;20638;-77
2021/04/24 11:02:57;;;;;;;5.82;3.03;;;12.50;89.80;;;;;;4954630;28;20023;-79
2021/04/24 11:05:30;;;;;;;6.07;3.13;;;12.70;90.60;;;;;;4938091;28;20028;-76
2021/04/24 11:08:11;;;;;;;11.07;3.75;;;12.90;88.90;;;;;;4956637;28;20077;-78
2021/04/24 11:10:59;;;;;;;6.25;2.67;;;13.20;85.30;;;;;;4981127;28;20029;-76
2021/04/24 11:13:29;;;;;;;10.23;3.70;;;13.20;84.30;;;;;;4952770;28;20023;-80
2021/04/24 11:15:57;;;;;;;6.00;3.50;;;13.00;84.10;;;;;;4960318;28;20028;-78
2021/04/24 11:18:24;;;;;;;5.28;3.33;;;12.70;83.60;;;;;;4952640;28;20012;-78
2021/04/24 11:21:08;;;;;;;7.65;3.63;;;12.70;86.00;;;;;;4958084;28;20227;-76
2021/04/24 11:23:34;;;;;;;5.78;2.92;;;12.80;84.90;;;;;;4933281;28;20033;-81
2021/04/24 11:26:13;;;;;;;5.38;3.33;;;13.20;83.50;;;;;;4957937;28;20087;-79
2021/04/24 11:29:18;;;;;;;6.80;3.35;;;13.40;83.20;;;;;;4941700;28;20081;-78
2021/04/24 11:31:53;;;;;;;7.38;3.88;;;13.10;82.00;;;;;;4911004;28;20028;-75
2021/04/24 11:34:45;;;;;;;5.78;3.42;;;12.80;83.50;;;;;;4949811;28;20025;-75
2021/04/24 11:37:18;;;;;;;7.95;3.90;;;13.00;82.60;;;;;;4964925;28;20040;-77
2021/04/24 11:40:22;;;;;;;6.53;4.15;;;12.90;82.10;;;;;;4948258;28;20059;-76
2021/04/24 11:42:52;;;;;;;7.50;3.42;;;12.90;84.40;;;;;;4954884;28;20518;-77
2021/04/24 11:45:42;;;;;;;7.25;3.40;;;13.00;84.60;;;;;;4947530;28;20059;-78
2021/04/24 11:48:08;;;;;;;4.65;2.90;;;13.40;83.30;;;;;;4951842;28;20032;-81
2021/04/24 11:50:42;;;;;;;7.63;3.50;;;13.30;80.20;;;;;;4975191;28;20090;-77
2021/04/24 11:53:08;;;;;;;6.35;3.22;;;13.40;81.20;;;;;;4953539;28;20057;-77
2021/04/24 11:55:37;;;;;;;6.22;3.58;;;13.40;82.20;;;;;;5022643;28;20042;-76
2021/04/24 11:58:10;;;;;;;7.60;4.05;;;13.60;79.20;;;;;;4949868;28;20088;-78
2021/04/24 12:00:37;;;;;;;6.68;3.38;;;13.70;79.40;;;;;;4964269;28;20051;-78
2021/04/24 12:03:05;;;;;;;8.70;3.88;;;13.70;78.30;;;;;;4959021;28;20039;-78
2021/04/24 12:05:39;;;;;;;10.00;4.35;;;14.10;78.80;;;;;;4957038;28;20023;-79
2021/04/24 12:08:07;;;;;;;6.43;3.63;;;13.80;77.90;;;;;;4957710;28;20027;-76
2021/04/24 12:10:33;;;;;;;6.63;3.95;;;14.00;77.10;;;;;;4959263;28;20099;-76
2021/04/24 12:13:09;;;;;;;5.07;3.55;;;13.90;75.10;;;;;;4968544;28;20054;-76
2021/04/24 12:15:44;;;;;;;6.95;3.92;;;13.50;76.20;;;;;;4964407;28;20027;-78
2021/04/24 12:18:09;;;;;;;6.75;3.72;;;13.60;76.50;;;;;;4965033;28;20084;-79
2021/04/24 12:20:38;;;;;;;8.32;3.85;;;13.90;76.70;;;;;;4947612;28;20329;-77
2021/04/24 12:23:09;;;;;;;7.78;3.97;;;13.80;76.20;;;;;;4969724;28;20048;-80
2021/04/24 12:25:39;;;;;;;7.55;4.13;;;13.90;77.90;;;;;;4975797;28;20024;-77
2021/04/24 12:28:09;;;;;;;8.30;4.45;;;13.90;78.60;;;;;;4959258;28;20039;-76
2021/04/24 12:30:42;;;;;;;8.07;3.83;;;13.50;85.20;;;;;;4972213;28;20027;-76
2021/04/24 12:33:18;;;;;;;9.38;4.82;;;14.00;86.40;;;;;;4986200;28;20016;-78
2021/04/24 12:35:51;;;;;;;8.45;4.70;;;13.90;83.40;;;;;;4976770;28;20035;-77
2021/04/24 12:38:25;;;;;;;10.20;5.00;;;13.60;85.70;;;;;;4965617;28;20058;-77
2021/04/24 12:40:58;;;;;;;7.60;3.97;;;13.70;83.10;;;;;;4964681;28;20035;-78
2021/04/24 12:43:26;;;;;;;9.10;4.82;;;14.30;83.10;;;;;;4974887;28;20011;-78
2021/04/24 12:45:55;;;;;;;7.85;4.80;;;14.20;81.40;;;;;;4964120;28;20054;-77
2021/04/24 12:48:26;;;;;;;10.30;4.80;;;13.60;83.50;;;;;;4958041;28;20031;-76
2021/04/24 12:50:58;;;;;;;8.27;4.05;;;13.10;84.40;;;;;;4964834;28;20559;-77
2021/04/24 12:53:32;;;;;;;;;;;13.20;84.90;;;;;;5006194;28;20019;-76